アダック島 の空港の天気 - METARとTAF

アダック空港 ( PADK / ADK ) - アメリカ アラスカ州アダック島
飛行場実況気象(Metar)
観測時間05/26 14:56 AKDT (05/26 22:56 UTC)
風向・風速南南西 4m/s
視程10km以上
天気現象弱い雨
少しの雲 雲底高度 490m
全天の4割程度の雲 雲底高度 610m
全天を覆う雲 雲底高度 850m
気温6.1℃
湿度89%
気圧1014.9hPa
METARPADK 262256Z AUTO 20008KT 8SM -RA FEW016 SCT020 OVC028 06/04 A2997 RMK AO2 RAB30 SLP149 P0001 T00610044
過去の天気等 Google飛行場航空写真 Wunderground天気予報

過去48時間のMETAR

飛行場予報(TAF)
データがありません